Time;durP1;ratioP1;P1;durP2;ratioP2;P2;SDS_P1;SDS_P2;PMS_P1;PMS_P2;Temp;Humidity;BMP_temperature;BMP_pressure;BME280_temperature;BME280_humidity;BME280_pressure;Samples;Min_cycle;Max_cycle;Signal;HPM_P1;HPM_P2
2023/08/08 00:02:08;;;;;;;2.47;1.53;;;12.30;99.90;;;;;;5096088;28;20191;-43
2023/08/08 00:04:33;;;;;;;4.57;1.80;;;12.30;99.90;;;;;;5095743;28;20658;-42
2023/08/08 00:06:59;;;;;;;2.57;1.77;;;12.30;99.90;;;;;;5095622;28;20202;-42
2023/08/08 00:09:24;;;;;;;4.70;1.50;;;12.30;99.90;;;;;;5095863;28;20202;-42
2023/08/08 00:11:50;;;;;;;2.93;1.80;;;12.20;99.90;;;;;;5095674;28;20540;-43
2023/08/08 00:14:16;;;;;;;3.73;2.07;;;12.20;99.90;;;;;;5095832;28;20311;-43
2023/08/08 00:16:42;;;;;;;4.33;2.10;;;12.20;99.90;;;;;;5095503;28;20207;-41
2023/08/08 00:19:07;;;;;;;3.90;2.20;;;12.20;99.90;;;;;;5095991;28;20191;-41
2023/08/08 00:21:33;;;;;;;4.07;2.47;;;12.20;99.90;;;;;;5077581;28;20198;-42
2023/08/08 00:23:58;;;;;;;2.10;1.90;;;12.30;99.90;;;;;;5096252;28;20183;-41
2023/08/08 00:26:24;;;;;;;3.43;2.13;;;12.30;99.90;;;;;;5095692;28;20229;-43
2023/08/08 00:28:50;;;;;;;4.63;2.67;;;12.40;99.90;;;;;;5095718;28;20200;-41
2023/08/08 00:31:17;;;;;;;3.57;2.10;;;12.50;99.90;;;;;;5095158;28;20182;-41
2023/08/08 00:33:43;;;;;;;5.07;2.50;;;12.50;99.90;;;;;;5095403;28;20652;-41
2023/08/08 00:36:08;;;;;;;3.17;2.47;;;12.50;99.90;;;;;;5095315;28;20218;-43
2023/08/08 00:38:34;;;;;;;3.03;2.17;;;12.50;70.70;;;;;;5095024;28;20202;-42
2023/08/08 00:41:00;;;;;;;7.90;2.93;;;12.50;70.40;;;;;;5095137;28;20545;-42
2023/08/08 00:43:25;;;;;;;6.00;1.90;;;12.50;78.70;;;;;;5095349;28;20179;-42
2023/08/08 00:45:51;;;;;;;5.50;2.27;;;12.50;87.50;;;;;;5095680;28;20723;-42
2023/08/08 00:48:17;;;;;;;4.27;2.50;;;12.60;83.90;;;;;;5095406;28;20210;-41
2023/08/08 00:50:46;;;;;;;3.23;2.37;;;12.60;76.30;;;;;;5095191;28;20179;-41
2023/08/08 00:53:12;;;;;;;4.20;1.80;;;12.60;72.70;;;;;;5076972;28;20186;-43
2023/08/08 00:55:38;;;;;;;3.20;1.93;;;12.60;71.50;;;;;;5095340;28;20673;-44
2023/08/08 00:58:04;;;;;;;4.33;2.33;;;12.60;79.60;;;;;;5095030;28;20301;-42
2023/08/08 01:00:30;;;;;;;3.77;2.13;;;12.60;72.80;;;;;;5095427;28;20217;-41
2023/08/08 01:02:55;;;;;;;3.17;1.87;;;12.60;65.20;;;;;;5095301;28;20221;-43
2023/08/08 01:05:21;;;;;;;3.93;1.90;;;12.50;59.30;;;;;;5095289;28;20187;-44
2023/08/08 01:07:56;;;;;;;7.00;2.13;;;12.50;58.10;;;;;;5095311;28;20211;-41
2023/08/08 01:10:36;;;;;;;6.63;2.27;;;12.40;59.10;;;;;;5095064;28;20174;-41
2023/08/08 01:13:17;;;;;;;3.43;2.13;;;12.40;67.00;;;;;;5095222;28;20187;-42
2023/08/08 01:15:44;;;;;;;5.37;2.50;;;12.40;73.60;;;;;;5095543;28;20194;-42
2023/08/08 01:18:11;;;;;;;4.93;2.17;;;12.50;89.50;;;;;;5094570;28;20202;-43
2023/08/08 01:20:38;;;;;;;4.57;2.13;;;12.50;90.20;;;;;;5094938;28;20563;-41
2023/08/08 01:23:27;;;;;;;3.37;2.33;;;12.50;81.60;;;;;;5094563;28;20187;-41
2023/08/08 01:25:54;;;;;;;6.63;2.30;;;12.50;79.00;;;;;;5094531;28;20217;-41
2023/08/08 01:28:23;;;;;;;3.23;2.07;;;12.50;77.00;;;;;;5094275;28;20206;-41
2023/08/08 01:30:49;;;;;;;4.10;2.17;;;12.40;69.20;;;;;;5094637;28;20175;-42
2023/08/08 01:33:14;;;;;;;4.50;2.10;;;12.50;70.20;;;;;;5095088;28;20185;-42
2023/08/08 01:35:48;;;;;;;4.23;2.20;;;12.40;73.70;;;;;;5094397;28;20262;-43
2023/08/08 01:38:20;;;;;;;3.03;1.90;;;12.50;80.60;;;;;;5094702;28;20225;-43
2023/08/08 01:40:46;;;;;;;2.40;1.60;;;12.40;84.60;;;;;;5094963;28;20163;-43
2023/08/08 01:43:14;;;;;;;4.03;2.40;;;12.50;80.80;;;;;;5094066;28;20190;-39
2023/08/08 01:45:40;;;;;;;5.37;1.90;;;12.50;83.10;;;;;;5075936;28;20593;-42
2023/08/08 01:48:09;;;;;;;5.73;2.07;;;12.50;79.70;;;;;;5093934;28;20214;-42
2023/08/08 01:50:36;;;;;;;3.87;1.90;;;12.50;77.30;;;;;;5093148;28;20182;-42
2023/08/08 01:53:02;;;;;;;3.53;1.80;;;12.50;81.10;;;;;;5093984;28;20191;-42
2023/08/08 01:55:28;;;;;;;3.83;1.60;;;12.50;82.70;;;;;;5075637;28;20642;-42
2023/08/08 01:57:53;;;;;;;3.73;1.80;;;12.50;90.90;;;;;;5093696;28;20186;-42
2023/08/08 02:00:19;;;;;;;6.17;1.77;;;12.50;86.80;;;;;;5093691;28;20262;-43
2023/08/08 02:02:45;;;;;;;2.73;1.90;;;12.50;86.10;;;;;;5093870;28;20556;-43
2023/08/08 02:05:10;;;;;;;4.07;1.80;;;12.60;77.20;;;;;;5093914;28;20175;-42
2023/08/08 02:07:36;;;;;;;2.50;1.73;;;12.60;70.60;;;;;;5075902;28;20716;-43
2023/08/08 02:10:02;;;;;;;3.60;1.70;;;12.50;64.50;;;;;;5075721;28;20213;-42
2023/08/08 02:12:29;;;;;;;2.97;1.67;;;12.50;57.60;;;;;;5094292;28;20202;-42
2023/08/08 02:14:56;;;;;;;3.40;1.70;;;12.50;71.00;;;;;;5093861;28;20650;-44
2023/08/08 02:17:21;;;;;;;3.77;2.03;;;12.50;71.70;;;;;;5093705;28;20194;-41
2023/08/08 02:19:47;;;;;;;2.73;2.07;;;12.60;70.10;;;;;;5093902;28;20197;-42
2023/08/08 02:22:12;;;;;;;5.70;1.87;;;12.60;76.50;;;;;;5075681;28;20662;-42
2023/08/08 02:24:38;;;;;;;4.03;1.90;;;12.60;70.80;;;;;;5093746;28;20190;-43
2023/08/08 02:27:04;;;;;;;4.17;2.00;;;12.60;71.10;;;;;;5093582;28;20300;-42
2023/08/08 02:29:30;;;;;;;3.77;2.03;;;12.60;73.50;;;;;;5093501;28;20198;-42
2023/08/08 02:31:55;;;;;;;7.30;1.73;;;12.60;64.60;;;;;;5093448;28;20643;-40
2023/08/08 02:34:21;;;;;;;3.40;1.80;;;12.50;65.40;;;;;;5093854;28;20183;-43
2023/08/08 02:36:46;;;;;;;7.57;1.97;;;12.50;59.30;;;;;;5093540;28;20567;-42
2023/08/08 02:39:12;;;;;;;9.77;2.10;;;12.40;65.10;;;;;;5094014;28;20187;-42
2023/08/08 02:41:37;;;;;;;7.67;1.90;;;12.40;71.70;;;;;;5094321;28;20645;-42
2023/08/08 02:44:03;;;;;;;5.67;1.67;;;12.40;65.80;;;;;;5095334;28;20175;-41
2023/08/08 02:46:29;;;;;;;3.83;2.07;;;12.40;69.30;;;;;;5095968;28;20294;-42
2023/08/08 02:48:54;;;;;;;6.03;2.10;;;12.40;68.00;;;;;;5093892;28;20678;-43
2023/08/08 02:51:20;;;;;;;5.27;1.80;;;12.30;70.60;;;;;;5075489;28;20228;-42
2023/08/08 02:53:45;;;;;;;3.33;2.00;;;12.30;76.50;;;;;;5093734;28;20175;-43
2023/08/08 02:56:11;;;;;;;7.23;2.10;;;12.30;84.20;;;;;;5075114;28;20199;-41
2023/08/08 02:58:36;;;;;;;5.00;2.00;;;12.30;84.80;;;;;;5093708;28;20218;-43
2023/08/08 03:01:02;;;;;;;4.63;2.03;;;12.30;89.20;;;;;;5093608;28;20551;-42
2023/08/08 03:03:28;;;;;;;4.73;2.03;;;12.20;94.30;;;;;;5096058;28;20202;-42
2023/08/08 03:05:54;;;;;;;5.67;2.20;;;12.20;94.00;;;;;;5097143;28;20215;-43
2023/08/08 03:08:19;;;;;;;8.10;2.30;;;12.20;93.40;;;;;;5097425;28;20662;-43
2023/08/08 03:10:45;;;;;;;5.00;2.37;;;12.20;94.50;;;;;;5097524;28;20268;-42
2023/08/08 03:13:10;;;;;;;4.87;2.30;;;12.20;96.60;;;;;;5078899;28;20183;-41
2023/08/08 03:15:36;;;;;;;6.97;2.47;;;12.20;99.90;;;;;;5097204;28;20627;-42
2023/08/08 03:18:04;;;;;;;5.27;2.30;;;12.20;98.90;;;;;;5096816;28;20262;-41
2023/08/08 03:20:30;;;;;;;7.87;2.07;;;12.20;97.30;;;;;;5096881;28;20261;-43
2023/08/08 03:22:56;;;;;;;5.77;2.20;;;12.20;99.90;;;;;;5097304;28;20219;-42
2023/08/08 03:25:22;;;;;;;5.87;2.37;;;12.20;99.90;;;;;;5096737;28;20183;-42
2023/08/08 03:27:47;;;;;;;5.20;2.10;;;12.20;99.90;;;;;;5078456;28;20210;-41
2023/08/08 03:30:13;;;;;;;9.00;2.50;;;12.20;99.90;;;;;;5078572;28;20187;-42
2023/08/08 03:32:39;;;;;;;8.17;2.30;;;12.20;99.90;;;;;;5097005;28;20514;-41
2023/08/08 03:35:06;;;;;;;4.93;2.10;;;12.20;99.90;;;;;;5096458;28;20213;-44
2023/08/08 03:37:31;;;;;;;4.97;2.40;;;12.30;99.90;;;;;;5078272;28;20198;-42
2023/08/08 03:39:57;;;;;;;5.67;2.40;;;12.30;99.90;;;;;;5096427;28;20175;-40
2023/08/08 03:42:22;;;;;;;6.63;2.10;;;12.30;99.90;;;;;;5096357;28;20182;-43
2023/08/08 03:44:48;;;;;;;13.23;2.67;;;12.30;99.90;;;;;;5096458;28;20244;-42
2023/08/08 03:47:14;;;;;;;7.77;2.50;;;12.40;99.90;;;;;;5096286;28;20228;-42
2023/08/08 03:49:39;;;;;;;6.80;2.30;;;12.40;99.90;;;;;;5078033;28;20187;-42
2023/08/08 03:52:05;;;;;;;4.60;2.40;;;12.40;99.90;;;;;;5096178;28;20658;-43
2023/08/08 03:54:31;;;;;;;9.33;2.73;;;12.50;99.90;;;;;;5096405;28;20519;-43
2023/08/08 03:56:57;;;;;;;6.27;2.57;;;12.50;99.90;;;;;;5078053;28;20206;-43
2023/08/08 03:59:23;;;;;;;4.43;2.30;;;12.50;99.90;;;;;;5077983;28;20622;-42
2023/08/08 04:01:49;;;;;;;3.83;2.57;;;12.60;99.90;;;;;;5096173;28;20183;-43
2023/08/08 04:04:14;;;;;;;7.57;2.57;;;12.60;99.90;;;;;;5077877;28;20214;-42
2023/08/08 04:06:40;;;;;;;7.10;2.83;;;12.70;99.90;;;;;;5095922;28;20206;-41
2023/08/08 04:09:06;;;;;;;5.60;2.67;;;12.70;99.90;;;;;;5096411;28;20214;-43
2023/08/08 04:11:35;;;;;;;8.20;2.83;;;12.80;99.90;;;;;;5077593;28;20178;-42
2023/08/08 04:14:00;;;;;;;12.83;3.00;;;12.80;99.90;;;;;;5094997;28;20179;-43
2023/08/08 04:16:26;;;;;;;13.97;3.40;;;12.80;99.90;;;;;;5096362;28;20195;-42
2023/08/08 04:18:51;;;;;;;5.10;2.70;;;12.80;99.90;;;;;;5096664;28;20171;-43
2023/08/08 04:21:17;;;;;;;9.03;3.30;;;12.90;99.90;;;;;;5095705;28;20266;-42
2023/08/08 04:23:43;;;;;;;7.43;3.53;;;12.90;99.90;;;;;;5095831;28;20206;-41
2023/08/08 04:26:08;;;;;;;7.63;3.67;;;13.00;99.90;;;;;;5095722;28;20211;-42
2023/08/08 04:28:34;;;;;;;14.07;3.37;;;13.00;99.90;;;;;;5095542;28;20258;-43
2023/08/08 04:30:59;;;;;;;9.63;3.20;;;13.00;99.90;;;;;;5095654;28;20183;-43
2023/08/08 04:33:25;;;;;;;10.03;3.13;;;13.10;99.90;;;;;;5077262;28;20186;-42
2023/08/08 04:35:50;;;;;;;7.73;3.20;;;13.10;99.90;;;;;;5077504;28;20210;-43
2023/08/08 04:38:16;;;;;;;11.37;2.93;;;13.10;99.90;;;;;;5095286;28;20229;-42
2023/08/08 04:40:43;;;;;;;12.37;3.17;;;13.10;99.90;;;;;;5095986;28;20245;-42
2023/08/08 04:43:09;;;;;;;6.80;3.20;;;13.20;99.90;;;;;;5095889;28;20194;-41
2023/08/08 04:45:42;;;;;;;9.77;3.33;;;13.20;99.90;;;;;;5095491;28;20179;-41
2023/08/08 04:48:08;;;;;;;8.50;2.70;;;13.20;99.90;;;;;;5094736;28;20245;-41
2023/08/08 04:50:34;;;;;;;12.80;3.13;;;13.30;99.90;;;;;;5095244;28;20607;-41
2023/08/08 04:52:59;;;;;;;11.63;2.93;;;13.30;99.90;;;;;;5095264;28;20182;-42
2023/08/08 04:55:25;;;;;;;10.03;3.40;;;13.40;99.90;;;;;;5076673;28;20232;-42
2023/08/08 04:57:51;;;;;;;12.07;3.60;;;13.40;99.90;;;;;;5076721;28;20186;-41
2023/08/08 05:00:17;;;;;;;11.27;3.50;;;13.40;99.90;;;;;;5094753;28;20174;-43
2023/08/08 05:02:43;;;;;;;11.03;3.40;;;13.40;99.90;;;;;;5094607;28;20281;-42
2023/08/08 05:05:09;;;;;;;6.30;2.97;;;13.40;99.90;;;;;;5094692;28;20260;-40
2023/08/08 05:07:37;;;;;;;8.20;2.97;;;13.50;99.90;;;;;;5094642;28;20206;-42
2023/08/08 05:10:03;;;;;;;9.70;3.17;;;13.50;99.90;;;;;;5094914;28;20187;-43
2023/08/08 05:12:29;;;;;;;10.50;3.20;;;13.50;99.90;;;;;;5095347;28;20721;-42
2023/08/08 05:14:55;;;;;;;9.37;2.90;;;13.60;99.90;;;;;;5094930;28;20221;-42
2023/08/08 05:17:21;;;;;;;11.30;3.17;;;13.60;99.90;;;;;;5076118;28;20233;-43
2023/08/08 05:19:47;;;;;;;9.17;3.43;;;13.60;99.90;;;;;;5076332;28;20210;-39
2023/08/08 05:22:14;;;;;;;6.97;3.33;;;13.70;99.90;;;;;;5076391;28;20677;-41
2023/08/08 05:24:43;;;;;;;8.67;2.50;;;13.70;99.90;;;;;;5094823;28;20254;-43
2023/08/08 05:27:11;;;;;;;12.63;3.30;;;13.80;99.90;;;;;;5076292;28;20213;-44
2023/08/08 05:29:42;;;;;;;8.23;2.50;;;13.80;99.90;;;;;;5076947;28;20566;-43
2023/08/08 05:32:10;;;;;;;7.80;3.70;;;13.80;99.90;;;;;;5094646;28;20216;-44
2023/08/08 05:34:41;;;;;;;11.10;3.67;;;13.90;99.90;;;;;;5076524;28;20210;-44
2023/08/08 05:37:11;;;;;;;10.40;2.53;;;13.90;99.90;;;;;;5060265;28;20203;-41
2023/08/08 05:39:38;;;;;;;10.87;3.17;;;13.90;99.90;;;;;;5094519;28;20635;-42
2023/08/08 05:42:05;;;;;;;7.87;2.50;;;13.90;99.90;;;;;;5075960;28;20728;-42
2023/08/08 05:44:31;;;;;;;11.13;2.77;;;14.00;99.90;;;;;;5076251;28;20187;-42
2023/08/08 05:47:02;;;;;;;6.03;1.90;;;14.00;99.90;;;;;;5076059;28;20241;-41
2023/08/08 05:49:34;;;;;;;8.83;2.83;;;14.00;99.90;;;;;;5076200;28;20661;-42
2023/08/08 05:52:01;;;;;;;7.20;2.50;;;14.00;99.90;;;;;;5075874;28;20178;-40
2023/08/08 05:54:29;;;;;;;9.07;2.27;;;14.00;99.90;;;;;;5093936;28;20183;-41
2023/08/08 05:56:55;;;;;;;9.80;2.13;;;14.00;99.90;;;;;;5093718;28;20203;-43
2023/08/08 05:59:27;;;;;;;11.83;2.73;;;14.10;99.90;;;;;;5076029;28;20673;-42
2023/08/08 06:01:55;;;;;;;7.37;2.27;;;14.10;99.90;;;;;;5060277;28;20631;-41
2023/08/08 06:04:22;;;;;;;7.90;2.13;;;14.10;99.90;;;;;;5076036;28;20217;-40
2023/08/08 06:06:49;;;;;;;8.87;2.43;;;14.20;99.90;;;;;;5094058;28;20294;-42
2023/08/08 06:09:19;;;;;;;9.23;2.37;;;14.30;99.90;;;;;;5075885;28;20222;-43
2023/08/08 06:11:47;;;;;;;8.13;2.53;;;14.30;99.90;;;;;;5059713;28;20181;-41
2023/08/08 06:14:13;;;;;;;11.27;3.07;;;14.40;99.90;;;;;;5076208;28;20650;-43
2023/08/08 06:16:41;;;;;;;6.57;2.20;;;14.40;99.90;;;;;;5075640;28;20207;-43
2023/08/08 06:19:14;;;;;;;6.87;2.17;;;14.40;99.90;;;;;;5076186;28;20556;-43
2023/08/08 06:21:51;;;;;;;8.37;2.67;;;14.40;99.90;;;;;;5059405;28;20190;-43
2023/08/08 06:24:19;;;;;;;8.37;2.83;;;14.40;99.90;;;;;;5093699;28;20174;-41
2023/08/08 06:26:50;;;;;;;11.07;3.00;;;14.50;99.90;;;;;;5075927;28;20206;-43
2023/08/08 06:29:32;;;;;;;9.77;2.10;;;14.60;99.90;;;;;;5076617;28;20211;-43
2023/08/08 06:32:08;;;;;;;6.60;2.40;;;14.70;99.90;;;;;;5093873;28;20258;-43
2023/08/08 06:34:35;;;;;;;5.10;2.33;;;14.70;99.90;;;;;;5075996;28;20194;-43
2023/08/08 06:37:02;;;;;;;10.63;2.90;;;14.80;99.90;;;;;;5094541;28;20210;-42
2023/08/08 06:39:38;;;;;;;12.63;2.57;;;14.80;99.90;;;;;;5079959;28;20194;-42
2023/08/08 06:42:06;;;;;;;5.67;2.23;;;14.90;99.90;;;;;;5079119;28;20194;-42
2023/08/08 06:44:46;;;;;;;12.43;2.70;;;14.90;99.90;;;;;;5080356;28;20191;-43
2023/08/08 06:47:16;;;;;;;5.47;2.73;;;15.00;99.90;;;;;;5079150;28;20623;-42
2023/08/08 06:49:45;;;;;;;6.87;2.50;;;15.00;99.90;;;;;;5079552;28;20246;-43
2023/08/08 06:52:17;;;;;;;7.70;2.63;;;15.10;99.90;;;;;;5079664;28;20651;-41
2023/08/08 06:54:47;;;;;;;8.30;2.77;;;15.10;99.90;;;;;;5046986;28;20168;-43
2023/08/08 06:57:14;;;;;;;8.87;2.83;;;15.10;99.90;;;;;;5079190;28;20734;-42
2023/08/08 06:59:50;;;;;;;7.30;2.77;;;15.20;99.90;;;;;;5063566;28;20191;-44
2023/08/08 07:02:17;;;;;;;9.90;3.10;;;15.30;99.90;;;;;;5079671;28;20198;-42
2023/08/08 07:04:55;;;;;;;8.93;2.80;;;15.30;99.90;;;;;;5062770;28;20205;-42
2023/08/08 07:07:37;;;;;;;5.37;2.80;;;15.40;99.90;;;;;;5079294;28;20294;-41
2023/08/08 07:10:56;;;;;;;8.57;2.83;;;15.50;99.90;;;;;;5098428;28;20191;-42
2023/08/08 07:13:39;;;;;;;8.30;2.57;;;15.50;99.90;;;;;;5079155;28;20202;-41
2023/08/08 07:16:56;;;;;;;13.80;2.97;;;15.60;99.90;;;;;;5077799;28;20294;-44
2023/08/08 07:20:05;;;;;;;8.77;3.13;;;15.70;99.90;;;;;;5097894;28;20619;-43
2023/08/08 07:22:51;;;;;;;7.27;2.73;;;15.70;99.90;;;;;;5078746;28;20271;-41
2023/08/08 07:52:43;;;;;;;12.67;3.03;;;16.00;99.90;;;;;;5098116;28;20178;-48
2023/08/08 07:55:09;;;;;;;10.07;2.77;;;16.00;99.90;;;;;;5097579;28;20643;-47
2023/08/08 07:57:47;;;;;;;8.40;3.03;;;16.00;99.90;;;;;;5097011;28;20260;-44
2023/08/08 08:00:14;;;;;;;9.33;2.97;;;16.00;99.90;;;;;;5078950;28;20179;-47
2023/08/08 08:02:46;;;;;;;6.43;3.30;;;15.90;99.90;;;;;;5078683;28;20191;-44
2023/08/08 08:05:13;;;;;;;7.33;3.07;;;15.90;99.90;;;;;;5062727;28;20233;-47
2023/08/08 08:07:45;;;;;;;10.73;3.30;;;15.80;99.90;;;;;;5078723;28;20211;-44
2023/08/08 08:10:13;;;;;;;6.60;2.77;;;15.80;99.90;;;;;;5078874;28;20266;-47
2023/08/08 08:12:42;;;;;;;11.17;2.93;;;15.80;99.90;;;;;;5078583;28;20191;-43
2023/08/08 08:15:12;;;;;;;9.03;2.97;;;15.80;99.90;;;;;;5078749;28;20191;-42
2023/08/08 08:17:43;;;;;;;4.30;2.70;;;15.90;99.90;;;;;;5096938;28;20214;-44
2023/08/08 08:20:10;;;;;;;8.77;3.37;;;16.00;99.90;;;;;;5063033;28;20182;-48
2023/08/08 08:22:38;;;;;;;10.57;2.80;;;16.00;99.90;;;;;;5096472;28;20183;-43
2023/08/08 08:25:07;;;;;;;9.13;3.03;;;16.10;99.90;;;;;;5078611;28;20831;-48
2023/08/08 08:27:33;;;;;;;6.03;3.00;;;16.30;99.90;;;;;;5096401;28;20234;-47
2023/08/08 08:30:00;;;;;;;9.10;3.07;;;16.40;99.90;;;;;;5096584;28;20214;-45
2023/08/08 08:32:27;;;;;;;7.33;2.90;;;16.50;99.90;;;;;;5078443;28;20193;-43
2023/08/08 08:34:53;;;;;;;11.13;2.97;;;16.50;99.90;;;;;;5078188;28;20668;-50
2023/08/08 08:37:20;;;;;;;7.63;2.80;;;16.60;99.90;;;;;;5078257;28;20580;-43
2023/08/08 08:39:45;;;;;;;7.57;2.80;;;16.60;99.90;;;;;;5078358;28;20195;-49
2023/08/08 08:42:14;;;;;;;7.73;2.83;;;16.60;99.90;;;;;;5096721;28;20316;-41
2023/08/08 08:44:42;;;;;;;11.80;3.23;;;16.60;99.90;;;;;;5096243;28;20280;-48
2023/08/08 08:47:12;;;;;;;6.97;3.10;;;16.60;99.90;;;;;;5097367;28;20612;-45
2023/08/08 08:49:45;;;;;;;10.20;2.73;;;16.60;99.90;;;;;;5096420;28;20207;-45
2023/08/08 08:52:13;;;;;;;6.60;2.40;;;16.60;99.90;;;;;;5077694;28;20229;-44
2023/08/08 08:54:41;;;;;;;7.73;2.50;;;16.60;99.90;;;;;;5095285;28;20677;-44
2023/08/08 08:57:08;;;;;;;8.17;2.60;;;16.70;99.90;;;;;;5077438;28;20636;-49
2023/08/08 08:59:45;;;;;;;7.83;2.83;;;16.60;99.90;;;;;;5095561;28;20195;-45
2023/08/08 09:02:12;;;;;;;7.37;2.70;;;16.70;99.90;;;;;;5073763;28;20208;-48
2023/08/08 09:04:38;;;;;;;6.20;2.73;;;16.80;99.90;;;;;;5095679;28;20202;-48
2023/08/08 09:07:06;;;;;;;7.77;3.10;;;16.90;99.90;;;;;;5078361;28;20569;-47
2023/08/08 09:09:43;;;;;;;6.33;2.83;;;17.00;99.90;;;;;;5060993;28;20815;-45
2023/08/08 09:12:10;;;;;;;6.27;2.97;;;17.20;99.90;;;;;;5061779;28;20205;-51
2023/08/08 09:14:42;;;;;;;11.60;3.13;;;17.30;99.90;;;;;;5077213;28;20187;-44
2023/08/08 09:17:23;;;;;;;7.63;3.00;;;17.50;99.90;;;;;;5077180;28;20202;-47
2023/08/08 09:19:50;;;;;;;7.13;2.83;;;17.70;99.90;;;;;;5078635;28;20202;-50
2023/08/08 09:22:32;;;;;;;9.00;2.90;;;17.80;99.90;;;;;;5095514;28;20312;-44
2023/08/08 09:24:58;;;;;;;6.40;2.73;;;17.90;99.90;;;;;;5093671;28;20678;-45
2023/08/08 09:27:24;;;;;;;8.60;3.37;;;17.90;99.90;;;;;;5077369;28;20207;-48
2023/08/08 09:29:51;;;;;;;9.03;2.90;;;17.90;99.90;;;;;;5095542;28;20210;-44
2023/08/08 09:32:18;;;;;;;10.73;3.30;;;17.80;99.90;;;;;;5077870;28;20183;-50
2023/08/08 09:35:03;;;;;;;6.40;2.83;;;17.80;99.90;;;;;;5095817;28;20171;-43
2023/08/08 09:37:29;;;;;;;4.47;2.40;;;17.80;99.90;;;;;;5076915;28;20674;-45
2023/08/08 09:40:03;;;;;;;6.47;2.40;;;17.70;99.90;;;;;;5077002;28;20193;-45
2023/08/08 09:42:30;;;;;;;6.90;2.70;;;17.70;99.90;;;;;;5095589;28;20201;-48
2023/08/08 09:44:59;;;;;;;7.37;2.67;;;17.70;99.90;;;;;;5095478;28;20190;-50
2023/08/08 09:47:31;;;;;;;6.67;2.40;;;17.70;99.90;;;;;;5096813;28;20624;-50
2023/08/08 09:50:06;;;;;;;5.03;2.63;;;17.90;99.90;;;;;;5061859;28;20239;-50
2023/08/08 09:52:34;;;;;;;9.20;2.67;;;18.00;99.90;;;;;;5094928;28;20246;-49
2023/08/08 09:55:02;;;;;;;6.83;2.33;;;18.20;99.90;;;;;;5076696;28;20194;-45
2023/08/08 09:57:46;;;;;;;9.00;2.50;;;18.40;99.90;;;;;;5076341;28;20209;-44
2023/08/08 10:00:20;;;;;;;8.13;3.03;;;18.50;99.90;;;;;;5078257;28;20673;-49
2023/08/08 10:02:50;;;;;;;8.20;2.47;;;18.70;99.90;;;;;;5076366;28;20248;-50
2023/08/08 10:05:16;;;;;;;7.93;2.30;;;18.70;99.90;;;;;;5076376;28;20213;-48
2023/08/08 10:07:44;;;;;;;4.27;2.43;;;18.80;99.90;;;;;;5076393;28;20209;-55
2023/08/08 10:10:10;;;;;;;6.60;2.13;;;18.80;99.90;;;;;;5059725;28;20186;-51
2023/08/08 10:12:41;;;;;;;3.30;2.00;;;18.70;99.90;;;;;;5058914;28;20183;-50
2023/08/08 10:15:09;;;;;;;6.30;2.57;;;18.60;99.90;;;;;;5094196;28;20178;-50
2023/08/08 10:17:39;;;;;;;4.17;1.93;;;18.40;99.90;;;;;;5059714;28;20255;-45
2023/08/08 10:20:17;;;;;;;8.10;1.93;;;18.30;99.90;;;;;;5076341;28;20183;-47
2023/08/08 10:22:45;;;;;;;6.70;2.20;;;18.20;99.90;;;;;;5077088;28;20307;-44
2023/08/08 10:25:33;;;;;;;3.43;2.10;;;18.10;99.90;;;;;;5093975;28;20269;-49
2023/08/08 10:28:15;;;;;;;5.33;2.10;;;18.10;99.90;;;;;;5076806;28;20195;-51
2023/08/08 10:30:52;;;;;;;5.77;2.07;;;18.10;99.90;;;;;;5075945;28;20232;-44
2023/08/08 10:33:38;;;;;;;5.80;1.80;;;18.10;99.90;;;;;;5076246;28;20187;-45
2023/08/08 10:36:09;;;;;;;5.43;2.13;;;18.00;99.90;;;;;;5094491;28;20207;-49
2023/08/08 10:38:58;;;;;;;10.17;2.20;;;18.00;99.90;;;;;;5075650;28;20293;-48
2023/08/08 10:41:26;;;;;;;5.20;1.97;;;17.90;99.90;;;;;;5093838;28;20183;-51
2023/08/08 10:43:55;;;;;;;6.40;1.93;;;17.80;99.90;;;;;;5076309;28;20182;-45
2023/08/08 10:46:31;;;;;;;6.50;2.40;;;17.80;99.90;;;;;;5095622;28;20199;-44
2023/08/08 10:49:02;;;;;;;5.30;2.07;;;17.80;99.90;;;;;;5094457;28;20202;-48
2023/08/08 10:51:37;;;;;;;5.87;2.00;;;17.70;99.90;;;;;;5094424;28;20163;-50
2023/08/08 10:54:09;;;;;;;10.17;2.30;;;17.70;99.90;;;;;;5076114;28;20214;-49
2023/08/08 10:56:37;;;;;;;5.63;1.80;;;17.70;99.90;;;;;;5094268;28;20282;-43
2023/08/08 10:59:15;;;;;;;8.70;2.20;;;17.70;99.90;;;;;;5076498;28;20183;-50
2023/08/08 11:01:41;;;;;;;6.07;1.90;;;17.70;99.90;;;;;;5076150;28;20187;-49
2023/08/08 11:04:13;;;;;;;4.60;2.00;;;17.70;99.90;;;;;;5093931;28;20187;-45
2023/08/08 11:06:42;;;;;;;3.73;1.70;;;17.70;99.90;;;;;;5094179;28;20202;-45
2023/08/08 11:09:08;;;;;;;6.67;1.70;;;17.80;99.90;;;;;;5094465;28;20693;-48
2023/08/08 11:11:43;;;;;;;4.67;1.80;;;17.80;99.90;;;;;;5094298;28;20195;-50
2023/08/08 11:14:14;;;;;;;7.47;1.73;;;17.80;99.90;;;;;;5094233;28;20175;-48
2023/08/08 11:16:48;;;;;;;6.83;1.83;;;17.80;99.90;;;;;;5075712;28;20207;-46
2023/08/08 11:19:16;;;;;;;7.90;2.33;;;17.80;99.90;;;;;;5060168;28;20217;-46
2023/08/08 11:21:49;;;;;;;6.20;1.97;;;17.80;99.90;;;;;;5093957;28;20206;-44
2023/08/08 11:24:16;;;;;;;6.10;1.63;;;17.80;99.90;;;;;;5096573;28;20182;-45
2023/08/08 11:26:58;;;;;;;4.60;2.13;;;17.80;99.90;;;;;;5079239;28;20207;-43
2023/08/08 11:29:30;;;;;;;7.73;1.97;;;17.90;99.90;;;;;;5079437;28;20291;-43
2023/08/08 11:32:00;;;;;;;4.83;1.70;;;17.90;99.90;;;;;;5080127;28;20619;-44
2023/08/08 11:34:27;;;;;;;4.90;1.60;;;17.90;99.90;;;;;;5097529;28;20187;-44
2023/08/08 11:36:58;;;;;;;5.87;1.70;;;17.90;99.90;;;;;;5078890;28;20575;-49
2023/08/08 11:39:27;;;;;;;6.53;2.00;;;17.90;99.90;;;;;;5097386;28;20258;-47
2023/08/08 11:41:53;;;;;;;5.60;1.80;;;18.00;99.90;;;;;;5097406;28;20214;-48
2023/08/08 11:44:19;;;;;;;3.33;1.70;;;17.90;99.90;;;;;;5078924;28;20240;-48
2023/08/08 11:46:48;;;;;;;3.77;1.60;;;17.90;99.90;;;;;;5080055;28;20241;-51
2023/08/08 11:49:18;;;;;;;5.23;1.43;;;17.90;99.90;;;;;;5097686;28;20226;-50
2023/08/08 11:51:59;;;;;;;;;;;;;;;;;;;;;
2023/08/08 11:54:28;;;;;;;5.67;1.93;;;17.80;99.90;;;;;;5082092;28;20165;-44
2023/08/08 11:56:56;;;;;;;6.83;2.80;;;17.70;99.90;;;;;;5097327;28;20237;-50
2023/08/08 11:59:26;;;;;;;7.97;2.80;;;17.60;99.90;;;;;;5062514;28;20198;-48
2023/08/08 12:01:52;;;;;;;6.43;2.13;;;17.40;99.90;;;;;;5079763;28;20210;-48
2023/08/08 12:04:24;;;;;;;6.40;2.10;;;17.20;99.90;;;;;;5079124;28;20210;-43
2023/08/08 12:06:50;;;;;;;3.97;2.20;;;17.00;99.90;;;;;;5079099;28;20282;-45
2023/08/08 12:09:17;;;;;;;4.80;2.00;;;16.90;99.90;;;;;;5097047;28;20245;-44
2023/08/08 12:11:46;;;;;;;6.87;2.00;;;16.70;99.90;;;;;;5096973;28;20190;-49
2023/08/08 12:14:13;;;;;;;4.13;2.07;;;16.70;99.90;;;;;;5097179;28;20302;-58
2023/08/08 12:16:39;;;;;;;6.43;2.33;;;16.60;99.90;;;;;;5078925;28;20218;-48
2023/08/08 12:19:10;;;;;;;5.67;2.40;;;16.60;99.90;;;;;;5078825;28;20194;-50
2023/08/08 12:21:57;;;;;;;7.20;2.47;;;16.60;99.90;;;;;;5078516;28;20179;-44
2023/08/08 12:24:22;;;;;;;5.87;2.30;;;16.50;99.90;;;;;;5096464;28;20171;-48
2023/08/08 12:26:52;;;;;;;4.83;2.30;;;16.50;99.90;;;;;;5096325;28;20199;-45
2023/08/08 12:29:19;;;;;;;5.60;2.60;;;16.60;99.90;;;;;;5096480;28;20202;-45
2023/08/08 12:31:44;;;;;;;5.57;2.40;;;16.70;99.90;;;;;;5078171;28;20236;-48
2023/08/08 12:34:10;;;;;;;3.93;2.30;;;16.80;99.90;;;;;;5096274;28;20171;-50
2023/08/08 12:36:39;;;;;;;3.67;2.30;;;16.90;99.90;;;;;;5095693;28;20198;-44
2023/08/08 12:39:06;;;;;;;7.10;2.10;;;17.00;99.90;;;;;;5079057;28;20191;-44
2023/08/08 12:41:31;;;;;;;5.03;2.03;;;17.10;99.90;;;;;;5078135;28;20191;-49
2023/08/08 12:43:57;;;;;;;5.67;1.63;;;17.50;99.90;;;;;;5077766;28;20240;-49
2023/08/08 12:46:29;;;;;;;5.10;1.60;;;17.90;99.90;;;;;;5079174;28;20294;-46
2023/08/08 12:48:56;;;;;;;5.73;1.80;;;18.30;99.90;;;;;;5096098;28;20230;-50
2023/08/08 12:51:36;;;;;;;4.27;1.77;;;18.60;99.90;;;;;;5095944;28;20187;-44
2023/08/08 12:54:07;;;;;;;6.07;1.60;;;18.80;99.90;;;;;;5095770;28;20171;-46
2023/08/08 12:56:44;;;;;;;5.80;1.70;;;18.80;99.90;;;;;;5095834;28;20688;-46
2023/08/08 12:59:11;;;;;;;6.93;1.50;;;18.80;99.90;;;;;;5078818;28;20250;-45
2023/08/08 13:01:39;;;;;;;6.00;1.60;;;18.80;99.90;;;;;;5077489;28;20244;-44
2023/08/08 13:04:05;;;;;;;6.90;1.87;;;18.60;99.90;;;;;;5076994;28;20206;-46
2023/08/08 13:06:31;;;;;;;7.70;1.93;;;18.60;99.90;;;;;;5095830;28;20203;-49
2023/08/08 13:09:13;;;;;;;5.93;2.10;;;18.60;99.90;;;;;;5095605;28;20290;-45
2023/08/08 13:11:45;;;;;;;6.13;1.80;;;18.70;99.90;;;;;;5077214;28;20194;-44
2023/08/08 13:14:11;;;;;;;4.10;1.90;;;18.70;99.90;;;;;;5077196;28;20191;-48
2023/08/08 13:16:49;;;;;;;4.87;2.03;;;18.80;99.90;;;;;;5077216;28;20214;-44
2023/08/08 13:19:19;;;;;;;6.83;2.20;;;18.80;99.90;;;;;;5077037;28;20201;-50
2023/08/08 13:21:45;;;;;;;8.43;2.43;;;19.00;99.90;;;;;;5077240;28;20219;-48
2023/08/08 13:24:13;;;;;;;8.53;2.03;;;19.20;99.90;;;;;;5095511;28;20183;-44